Share

Volcano, HI

Volcano Village (KHIVOLCA2) Elev 3796 ft | 19.43 °N, 155.24 °W | Change Station

Current weather conditions updated 1 minute ago

Rain
Rain
54.8 °F
Feels Like 54.8 °F
N
4.0
Wind Variable Wind from NNE
Gusts 14.0 mph
Sunrise 6:00 AM
Sunset 6:40 PM
Moon Waning Gibbous

Today is forecast to be nearly the same temperature as yesterday.

Pressure 30.09 in
Visibility 10.0 miles
Clouds Clear
Dew Point 54 °F
Humidity 99%
Rainfall 0.00 in
Snow Depth Not available.
UV out of 16
Pollen Not available.
PM2.5 Good
Flu Activity Local Activity
METAR PHTO 191053Z 24005KT 10SM CLR 21/19 A3010 RMK AO2 SLP190 T02060189

More Conditions Fewer Conditions

Pressure 30.09 in
Visibility 10.0 miles
Clouds Clear
Dew Point 54 °F
Humidity 99%
Rainfall 0.00 in
Snow Depth Not available.
UV out of 16
Pollen Not available.
PM2.5 Good
Flu Activity Local Activity
METAR PHTO 191053Z 24005KT 10SM CLR 21/19 A3010 RMK AO2 SLP190 T02060189

More Conditions Fewer Conditions

10-Day Weather Forecast

Almanac

Astronomy

Apr. 19, 2014 Rise Set
Actual Time 6:00 AM HST 6:40 PM HST
Civil Twilight 5:37 AM HST 7:02 PM HST
Nautical Twilight 5:11 AM HST 7:29 PM HST
Astronomical Twilight 4:44 AM HST 7:55 PM HST
Moon 11:14 PM HST 9:47 AM HST
Length of Visible Light 13h 24m
Length of Day
12h 39m
Tomorrow will be 1m 1s longer.
Waning Gibbous, 80% of the Moon is Illuminated
Today
Waning Gibbous
Apr 22
Last Quarter
Apr 29
New
May 6
First Quarter
May 14
Full

Today's Extremes

State Highs State Lows

Community

  • Bleeding Hearts
    Bleeding Hearts
  • Sunset Silhouettes
    Sunset Silhouettes
  • FL sunset Perico Isle
    FL sunset Perico Isle
  • Cloudy spring view
    Cloudy spring view
  • Old barn
    Old barn

WunderPhotos

Upload Photos

1,702,687 photos uploaded!

Nearby

Air Quality

  Air Quality AQ Index Pollutant
Yesterday Good
PM2.5
Current Good
PM2.5

Snow Depth

Station Depth Elevation
No new snow has been reported.

Coastal Water Temperatures

Place Temperature
No Stations Reporting

Earthquake Activity

City Distance Mag. Time & Date
No recent earthquake activity has been reported nearby.
Minimum magnitude displayed is 2.5.

Nearby Weather Stations

Station Location Temp. Dew Point Humidity Wind Precip. Elev Updated Type
Volcano Village, Volcano, HI 54.8 °F 54 °F 99% NNE  at  4.0 mph 0.00 in / hr 3796 ft 1:45 AM HST Normal
Kalani, Pahoa, HI 70.7 °F 70 °F 98% South  at  3.7 mph - / hr 141 ft 1:32 AM HST Normal

Show More Stations Show Fewer Stations

What do you think?

We're not finished. Please let us know what you like, what you don't like, and what you are still missing.